createdAt,value
2017-08-04T00:01:20.402Z,2.60
2017-08-04T00:03:49.331Z,2.40
2017-08-04T00:06:18.312Z,3.10
2017-08-04T00:08:47.255Z,2.22
2017-08-04T00:11:16.150Z,2.25
2017-08-04T00:13:45.053Z,2.42
2017-08-04T00:16:14.053Z,2.20
2017-08-04T00:18:43.128Z,3.35
2017-08-04T00:21:13.203Z,2.33
2017-08-04T00:23:42.162Z,2.45
2017-08-04T00:26:11.020Z,2.17
2017-08-04T00:28:39.952Z,2.17
2017-08-04T00:31:08.871Z,2.20
2017-08-04T00:33:37.814Z,2.67
2017-08-04T00:36:06.778Z,2.40
2017-08-04T00:38:35.699Z,2.20
2017-08-04T00:41:04.635Z,2.60
2017-08-04T00:43:33.547Z,2.33
2017-08-04T00:46:02.859Z,2.10
2017-08-04T00:48:31.755Z,3.25
2017-08-04T00:51:00.644Z,2.70
2017-08-04T00:53:29.834Z,2.40
2017-08-04T00:55:58.755Z,2.30
2017-08-04T00:58:27.693Z,3.05
2017-08-04T01:00:56.598Z,2.10
2017-08-04T01:03:25.540Z,2.40
2017-08-04T01:05:54.419Z,2.87
2017-08-04T01:08:23.360Z,2.58
2017-08-04T01:10:52.243Z,2.30
2017-08-04T01:13:21.167Z,2.90
2017-08-04T01:15:50.076Z,2.40
2017-08-04T01:18:18.966Z,2.00
2017-08-04T01:20:47.866Z,2.62
2017-08-04T01:24:36.135Z,2.37
2017-08-04T01:27:05.056Z,2.45
2017-08-04T01:29:33.948Z,2.50
2017-08-04T01:32:02.895Z,2.95
2017-08-04T01:34:31.858Z,2.53
2017-08-04T01:37:00.772Z,2.60
2017-08-04T01:39:29.686Z,2.60
2017-08-04T01:41:58.876Z,2.67
2017-08-04T01:44:27.894Z,2.42
2017-08-04T01:46:57.040Z,2.45
2017-08-04T01:49:26.011Z,2.30
2017-08-04T01:51:55.012Z,2.67
2017-08-04T01:54:24.115Z,2.60
2017-08-04T01:56:53.832Z,2.65
2017-08-04T01:59:22.715Z,2.90
2017-08-04T02:01:51.623Z,2.55
2017-08-04T02:04:20.591Z,2.40
2017-08-04T02:06:49.562Z,2.30
2017-08-04T02:09:18.556Z,2.70
2017-08-04T02:11:47.787Z,3.35
2017-08-04T02:14:16.707Z,2.35
2017-08-04T02:16:45.700Z,2.80
2017-08-04T02:19:14.716Z,2.58
2017-08-04T02:21:43.627Z,2.72
2017-08-04T02:24:12.566Z,2.25
2017-08-04T02:26:41.487Z,3.80
2017-08-04T02:29:10.382Z,3.12
2017-08-04T02:31:39.289Z,2.53
2017-08-04T02:34:08.363Z,2.50
2017-08-04T02:36:37.318Z,2.30
2017-08-04T02:39:06.299Z,2.62
2017-08-04T02:41:35.173Z,2.90
2017-08-04T02:44:04.098Z,2.60
2017-08-04T02:46:33.095Z,2.60
2017-08-04T02:49:01.988Z,2.60
2017-08-04T02:51:30.923Z,2.90
2017-08-04T02:53:59.849Z,2.95
2017-08-04T02:56:28.819Z,2.92
2017-08-04T02:58:58.007Z,2.70
2017-08-04T03:01:26.900Z,2.95
2017-08-04T03:03:55.902Z,2.50
2017-08-04T03:06:25.915Z,2.80
2017-08-04T03:08:54.797Z,3.50
2017-08-04T03:11:23.683Z,2.87
2017-08-04T03:13:52.612Z,2.87
2017-08-04T03:16:21.502Z,2.75
2017-08-04T03:18:50.407Z,2.42
2017-08-04T03:21:19.313Z,2.42
2017-08-04T03:23:48.231Z,2.40
2017-08-04T03:26:17.139Z,3.15
2017-08-04T03:28:46.060Z,2.67
2017-08-04T03:31:14.970Z,2.60
2017-08-04T03:33:43.864Z,3.05
2017-08-04T03:36:12.787Z,3.00
2017-08-04T03:38:42.135Z,2.75
2017-08-04T03:41:11.035Z,2.90
2017-08-04T03:43:39.955Z,2.47
2017-08-04T03:46:08.855Z,2.75
2017-08-04T03:48:37.750Z,3.00
2017-08-04T03:51:06.663Z,2.50
2017-08-04T03:53:35.650Z,2.12
2017-08-04T03:56:04.611Z,3.00
2017-08-04T03:58:33.529Z,2.65
2017-08-04T04:01:02.659Z,3.22
2017-08-04T04:03:31.628Z,3.03
2017-08-04T04:06:00.574Z,2.90
2017-08-04T04:08:29.592Z,2.60
2017-08-04T04:10:58.545Z,2.60
2017-08-04T04:13:27.511Z,2.72
2017-08-04T04:15:57.523Z,2.90
2017-08-04T04:18:30.019Z,2.70
2017-08-04T04:20:58.986Z,3.00
2017-08-04T04:23:28.027Z,2.45
2017-08-04T04:25:56.967Z,3.50
2017-08-04T04:28:25.875Z,2.60
2017-08-04T04:30:54.775Z,2.45
2017-08-04T04:33:23.731Z,2.80
2017-08-04T04:35:52.626Z,2.72
2017-08-04T04:39:24.520Z,2.85
2017-08-04T04:41:53.483Z,3.00
2017-08-04T04:44:22.515Z,2.60
2017-08-04T04:46:51.457Z,3.12
2017-08-04T04:49:20.360Z,2.20
2017-08-04T04:51:49.319Z,2.47
2017-08-04T04:54:18.291Z,2.85
2017-08-04T04:56:47.245Z,3.10
2017-08-04T04:59:16.201Z,3.22
2017-08-04T05:01:45.141Z,2.72
2017-08-04T05:04:14.083Z,2.30
2017-08-04T05:06:43.016Z,2.58
2017-08-04T05:11:50.052Z,2.75
2017-08-04T05:14:19.118Z,2.60
2017-08-04T05:16:48.069Z,2.45
2017-08-04T05:19:17.112Z,2.90
2017-08-04T05:21:46.026Z,2.40
2017-08-04T05:24:15.103Z,2.50
2017-08-04T05:26:44.424Z,2.60
2017-08-04T05:29:13.476Z,2.25
2017-08-04T05:32:45.021Z,2.30
2017-08-04T05:35:14.016Z,2.50
2017-08-04T05:37:43.375Z,2.87
2017-08-04T05:41:31.624Z,2.50
2017-08-04T05:44:00.738Z,3.47
2017-08-04T05:46:29.770Z,2.30
2017-08-04T05:48:58.791Z,2.83
2017-08-04T05:51:27.715Z,2.90
2017-08-04T05:53:56.632Z,2.75
2017-08-04T05:56:25.575Z,2.40
2017-08-04T05:58:54.595Z,2.80
2017-08-04T06:01:23.526Z,2.13
2017-08-04T06:03:52.450Z,2.77
2017-08-04T06:06:21.459Z,2.23
2017-08-04T06:08:50.346Z,2.40
2017-08-04T06:13:57.466Z,1.90
2017-08-04T06:16:26.510Z,2.47
2017-08-04T06:18:55.417Z,2.10
2017-08-04T06:21:24.411Z,2.43
2017-08-04T06:23:53.350Z,3.13
2017-08-04T06:26:22.314Z,2.07
2017-08-04T06:28:51.262Z,1.80
2017-08-04T06:31:20.251Z,2.37
2017-08-04T06:33:49.254Z,2.00
2017-08-04T06:36:18.252Z,2.63
2017-08-04T06:38:47.203Z,2.63
2017-08-04T06:41:16.211Z,2.73
2017-08-04T06:43:45.102Z,2.70
2017-08-04T06:46:14.112Z,3.37
2017-08-04T06:48:51.886Z,3.53
2017-08-04T06:55:33.683Z,2.97
2017-08-04T06:58:02.587Z,3.30
2017-08-04T07:00:31.500Z,3.23
2017-08-04T07:03:00.566Z,2.97
2017-08-04T07:06:02.106Z,2.60
2017-08-04T07:08:59.025Z,2.77
2017-08-04T07:12:02.167Z,3.00
2017-08-04T07:15:05.859Z,3.33
2017-08-04T07:18:02.800Z,3.97
2017-08-04T07:23:37.772Z,2.70
2017-08-04T07:26:06.763Z,2.93
2017-08-04T07:28:35.675Z,2.25
2017-08-04T07:31:04.610Z,2.40
2017-08-04T07:33:33.553Z,2.90
2017-08-04T07:36:02.524Z,2.40
2017-08-04T07:38:31.606Z,2.80
2017-08-04T07:41:00.630Z,2.83
2017-08-04T07:43:29.699Z,2.80
2017-08-04T07:45:58.731Z,2.80
2017-08-04T07:49:47.033Z,2.50
2017-08-04T07:52:16.031Z,2.60
2017-08-04T07:54:45.014Z,2.40
2017-08-04T07:57:14.315Z,3.60
2017-08-04T07:59:43.309Z,2.40
2017-08-04T08:02:12.283Z,2.70
2017-08-04T08:04:41.285Z,2.87
2017-08-04T08:07:10.270Z,2.57
2017-08-04T08:09:39.303Z,2.87
2017-08-04T08:12:08.300Z,2.37
2017-08-04T08:14:37.396Z,1.90
2017-08-04T08:17:06.306Z,2.70
2017-08-04T08:19:35.298Z,2.37
2017-08-04T08:22:04.283Z,2.10
2017-08-04T08:24:33.216Z,1.90
2017-08-04T08:27:02.171Z,2.57
2017-08-04T08:29:31.116Z,2.03
2017-08-04T08:32:00.091Z,2.33
2017-08-04T08:34:29.186Z,2.50
2017-08-04T08:36:58.233Z,2.27
2017-08-04T08:39:27.316Z,3.00
2017-08-04T08:41:56.293Z,1.93
2017-08-04T08:44:25.270Z,2.00
2017-08-04T08:46:54.296Z,2.03
2017-08-04T08:49:23.325Z,2.23
2017-08-04T08:51:52.427Z,2.50
2017-08-04T08:54:21.362Z,2.20
2017-08-04T08:56:50.384Z,2.03
2017-08-04T08:59:19.336Z,2.50
2017-08-04T09:01:48.521Z,2.73
2017-08-04T09:04:17.761Z,2.60
2017-08-04T09:06:47.324Z,2.97
2017-08-04T09:09:16.584Z,2.67
2017-08-04T09:11:46.436Z,2.20
2017-08-04T09:14:15.601Z,2.80
2017-08-04T09:16:44.597Z,2.60
2017-08-04T09:19:13.852Z,2.77
2017-08-04T09:21:43.579Z,2.90
2017-08-04T09:24:13.513Z,3.60
2017-08-04T09:26:42.514Z,3.20
2017-08-04T09:29:11.875Z,2.90
2017-08-04T09:31:41.297Z,3.67
2017-08-04T09:34:10.700Z,3.03
2017-08-04T09:36:39.919Z,3.83
2017-08-04T09:39:09.051Z,3.10
2017-08-04T09:41:38.108Z,2.80
2017-08-04T09:44:07.091Z,4.73
2017-08-04T09:46:36.126Z,2.90
2017-08-04T09:49:05.089Z,2.80
2017-08-04T09:51:34.123Z,2.73
2017-08-04T09:54:03.084Z,2.70
2017-08-04T09:56:32.046Z,3.00
2017-08-04T09:59:01.024Z,2.97
2017-08-04T10:01:30.212Z,3.17
2017-08-04T10:03:59.194Z,2.60
2017-08-04T10:06:28.191Z,2.87
2017-08-04T10:08:57.157Z,3.13
2017-08-04T10:11:26.101Z,4.50
2017-08-04T10:13:55.485Z,3.10
2017-08-04T10:16:24.395Z,3.13
2017-08-04T10:18:53.364Z,3.03
2017-08-04T10:21:22.368Z,3.17
2017-08-04T10:23:51.324Z,2.90
2017-08-04T10:26:20.554Z,3.07
2017-08-04T10:28:49.644Z,4.30
2017-08-04T10:31:18.691Z,3.77
2017-08-04T10:33:47.806Z,4.50
2017-08-04T10:36:16.810Z,4.80
2017-08-04T10:38:45.909Z,3.93
2017-08-04T10:41:14.983Z,4.40
2017-08-04T10:43:44.263Z,3.70
2017-08-04T10:46:13.343Z,4.20
2017-08-04T10:48:47.740Z,3.10
2017-08-04T10:51:16.880Z,3.70
2017-08-04T10:53:45.875Z,3.43
2017-08-04T10:58:53.050Z,3.80
2017-08-04T11:01:22.067Z,3.83
2017-08-04T11:03:51.059Z,3.93
2017-08-04T11:06:20.099Z,3.47
2017-08-04T11:08:50.152Z,3.33
2017-08-04T11:11:19.265Z,2.63
2017-08-04T11:13:49.929Z,2.77
2017-08-04T11:16:20.414Z,2.50
2017-08-04T11:18:50.206Z,2.80
2017-08-04T11:21:21.013Z,2.80
2017-08-04T11:23:50.360Z,2.73
2017-08-04T11:27:22.923Z,2.47
2017-08-04T11:29:52.085Z,2.50
2017-08-04T11:32:21.269Z,1.97
2017-08-04T11:34:50.287Z,1.83
2017-08-04T11:37:19.387Z,2.17
2017-08-04T11:39:48.458Z,2.00
2017-08-04T11:42:17.560Z,2.23
2017-08-04T11:44:46.615Z,1.90
2017-08-04T11:47:15.656Z,2.63
2017-08-04T11:49:44.692Z,2.20
2017-08-04T11:52:14.312Z,1.73
2017-08-04T11:54:43.304Z,1.47
2017-08-04T11:59:51.224Z,1.70
2017-08-04T12:03:22.523Z,1.40
2017-08-04T12:05:51.625Z,1.70
2017-08-04T12:08:20.683Z,1.70
2017-08-04T12:10:54.574Z,2.20
2017-08-04T12:13:23.579Z,1.73
2017-08-04T12:15:52.524Z,1.70
2017-08-04T12:18:21.462Z,1.50
2017-08-04T12:20:50.578Z,1.67
2017-08-04T12:23:19.595Z,1.67
2017-08-04T12:25:48.548Z,1.70
2017-08-04T12:28:17.658Z,2.03
2017-08-04T12:30:46.655Z,1.70
2017-08-04T12:33:15.651Z,1.67
2017-08-04T12:35:44.989Z,1.80
2017-08-04T12:38:13.911Z,2.10
2017-08-04T12:40:42.878Z,2.20
2017-08-04T12:43:11.854Z,1.90
2017-08-04T12:45:40.943Z,1.50
2017-08-04T12:48:10.062Z,1.90
2017-08-04T12:50:39.167Z,1.57
2017-08-04T12:53:08.227Z,2.03
2017-08-04T12:55:37.200Z,1.80
2017-08-04T12:58:06.516Z,1.83
2017-08-04T13:00:35.540Z,1.70
2017-08-04T13:03:04.656Z,1.70
2017-08-04T13:05:33.643Z,2.07
2017-08-04T13:08:02.592Z,3.10
2017-08-04T13:10:31.602Z,2.03
2017-08-04T13:13:00.579Z,1.63
2017-08-04T13:15:29.701Z,1.80
2017-08-04T13:17:58.707Z,1.90
2017-08-04T13:20:27.764Z,1.87
2017-08-04T13:22:58.830Z,1.73
2017-08-04T13:25:28.016Z,1.90
2017-08-04T13:27:57.043Z,2.00
2017-08-04T13:30:26.078Z,1.43
2017-08-04T13:32:55.177Z,1.80
2017-08-04T13:35:24.297Z,1.63
2017-08-04T13:37:53.935Z,1.80
2017-08-04T13:40:22.883Z,1.40
2017-08-04T13:42:51.876Z,1.60
2017-08-04T13:45:21.047Z,1.93
2017-08-04T13:49:09.392Z,1.80
2017-08-04T13:51:38.357Z,1.50
2017-08-04T13:54:07.358Z,1.60
2017-08-04T13:56:36.385Z,1.40
2017-08-04T13:59:05.391Z,1.63
2017-08-04T14:01:34.798Z,1.60
2017-08-04T14:04:04.107Z,1.70
2017-08-04T14:06:33.126Z,1.47
2017-08-04T14:09:03.532Z,1.33
2017-08-04T14:11:32.556Z,2.10
2017-08-04T14:14:01.499Z,1.60
2017-08-04T14:16:30.731Z,1.60
2017-08-04T14:18:59.930Z,1.43
2017-08-04T14:21:29.067Z,1.87
2017-08-04T14:23:58.091Z,1.37
2017-08-04T14:26:27.229Z,1.40
2017-08-04T14:28:56.284Z,1.67
2017-08-04T14:31:25.267Z,1.50
2017-08-04T14:33:54.274Z,1.70
2017-08-04T14:36:23.334Z,1.90
2017-08-04T14:38:52.371Z,1.43
2017-08-04T14:41:21.432Z,1.97
2017-08-04T14:43:50.478Z,1.80
2017-08-04T14:46:19.535Z,1.70
2017-08-04T14:48:48.588Z,1.70
2017-08-04T14:51:17.625Z,1.50
2017-08-04T14:53:48.080Z,1.83
2017-08-04T14:56:17.225Z,2.10
2017-08-04T14:58:46.251Z,2.00
2017-08-04T15:01:15.857Z,2.10
2017-08-04T15:03:44.844Z,2.00
2017-08-04T15:06:13.899Z,2.30
2017-08-04T15:08:43.053Z,1.90
2017-08-04T15:11:12.023Z,1.90
2017-08-04T15:13:41.160Z,2.20
2017-08-04T15:16:10.163Z,2.20
2017-08-04T15:18:39.131Z,2.13
2017-08-04T15:21:08.191Z,1.87
2017-08-04T15:23:37.275Z,1.90
2017-08-04T15:26:06.253Z,2.53
2017-08-04T15:28:35.208Z,2.10
2017-08-04T15:31:04.328Z,2.60
2017-08-04T15:33:34.301Z,2.40
2017-08-04T15:36:03.754Z,2.00
2017-08-04T15:38:32.705Z,2.33
2017-08-04T15:41:01.764Z,1.97
2017-08-04T15:43:30.892Z,2.23
2017-08-04T15:45:59.912Z,2.43
2017-08-04T15:48:28.952Z,1.77
2017-08-04T15:50:57.920Z,1.83
2017-08-04T15:53:26.905Z,1.70
2017-08-04T15:55:55.964Z,1.90
2017-08-04T15:58:25.000Z,2.20
2017-08-04T16:00:54.022Z,2.00
2017-08-04T16:03:23.333Z,2.30
2017-08-04T16:05:52.315Z,2.20
2017-08-04T16:08:21.259Z,2.00
2017-08-04T16:10:50.236Z,2.17
2017-08-04T16:13:19.242Z,1.87
2017-08-04T16:15:48.213Z,2.13
2017-08-04T16:18:17.162Z,2.00
2017-08-04T16:20:46.463Z,1.90
2017-08-04T16:23:15.452Z,1.73
2017-08-04T16:25:44.488Z,1.77
2017-08-04T16:28:13.563Z,1.80
2017-08-04T16:30:42.519Z,2.23
2017-08-04T16:33:11.558Z,2.17
2017-08-04T16:35:40.567Z,1.90
2017-08-04T16:40:47.743Z,1.90
2017-08-04T16:43:16.885Z,2.20
2017-08-04T16:45:46.738Z,1.50
2017-08-04T16:48:15.714Z,1.90
2017-08-04T16:50:44.696Z,1.50
2017-08-04T16:53:13.675Z,1.60
2017-08-04T16:55:45.781Z,2.00
2017-08-04T16:58:14.846Z,1.60
2017-08-04T17:00:43.791Z,1.80
2017-08-04T17:03:12.993Z,1.57
2017-08-04T17:05:41.992Z,1.57
2017-08-04T17:08:11.832Z,1.80
2017-08-04T17:10:40.904Z,1.67
2017-08-04T17:13:09.975Z,1.90
2017-08-04T17:15:38.994Z,1.70
2017-08-04T17:18:08.072Z,1.43
2017-08-04T17:21:07.353Z,1.47
2017-08-04T17:26:17.748Z,1.83
2017-08-04T17:28:46.720Z,2.63
2017-08-04T17:31:15.670Z,1.47
2017-08-04T17:33:44.722Z,1.70
2017-08-04T17:36:13.805Z,1.70
2017-08-04T17:38:42.918Z,1.40
2017-08-04T17:41:11.988Z,1.57
2017-08-04T17:43:41.024Z,1.80
2017-08-04T17:46:10.147Z,1.60
2017-08-04T17:48:39.317Z,1.60
2017-08-04T17:51:08.324Z,1.30
2017-08-04T17:53:37.595Z,2.10
2017-08-04T17:56:06.611Z,1.70
2017-08-04T17:58:36.719Z,1.50
2017-08-04T18:01:05.694Z,1.67
2017-08-04T18:03:34.818Z,1.60
2017-08-04T18:06:04.105Z,1.53
2017-08-04T18:08:33.107Z,1.80
2017-08-04T18:11:02.203Z,1.50
2017-08-04T18:13:31.305Z,1.30
2017-08-04T18:16:00.264Z,1.50
2017-08-04T18:18:29.199Z,1.63
2017-08-04T18:20:58.208Z,1.70
2017-08-04T18:23:27.344Z,1.70
2017-08-04T18:25:56.339Z,1.50
2017-08-04T18:28:25.646Z,1.30
2017-08-04T18:30:54.730Z,2.33
2017-08-04T18:33:23.739Z,1.70
2017-08-04T18:35:52.722Z,1.90
2017-08-04T18:38:22.596Z,1.93
2017-08-04T18:40:51.849Z,1.60
2017-08-04T18:43:21.013Z,1.70
2017-08-04T18:45:50.149Z,1.70
2017-08-04T18:48:19.287Z,2.20
2017-08-04T18:50:48.686Z,2.00
2017-08-04T18:53:17.771Z,1.63
2017-08-04T18:55:46.808Z,1.70
2017-08-04T18:58:15.951Z,2.07
2017-08-04T19:00:44.957Z,2.00
2017-08-04T19:03:14.212Z,2.60
2017-08-04T19:05:43.389Z,2.17
2017-08-04T19:09:15.110Z,2.30
2017-08-04T19:11:44.094Z,2.70
2017-08-04T19:14:13.679Z,2.30
2017-08-04T19:16:42.733Z,2.47
2017-08-04T19:19:11.802Z,2.30
2017-08-04T19:21:41.162Z,2.30
2017-08-04T19:24:10.253Z,2.07
2017-08-04T19:26:39.882Z,2.20
2017-08-04T19:29:08.868Z,2.53
2017-08-04T19:31:37.863Z,2.50
2017-08-04T19:34:07.784Z,2.40
2017-08-04T19:36:36.837Z,2.30
2017-08-04T19:39:06.605Z,2.30
2017-08-04T19:41:35.627Z,2.33
2017-08-04T19:44:04.865Z,2.77
2017-08-04T19:46:33.844Z,2.37
2017-08-04T19:49:03.066Z,2.20
2017-08-04T19:51:32.329Z,1.97
2017-08-04T19:54:02.281Z,2.70
2017-08-04T19:56:31.371Z,2.40
2017-08-04T19:59:00.575Z,2.07
2017-08-04T20:01:29.852Z,2.10
2017-08-04T20:03:59.559Z,2.50
2017-08-04T20:06:28.679Z,2.57
2017-08-04T20:08:57.739Z,2.47
2017-08-04T20:11:26.875Z,2.30
2017-08-04T20:13:55.906Z,2.57
2017-08-04T20:16:24.952Z,2.50
2017-08-04T20:18:53.994Z,2.43
2017-08-04T20:22:42.410Z,2.30
2017-08-04T20:25:11.500Z,2.93
2017-08-04T20:27:40.595Z,2.93
2017-08-04T20:30:09.658Z,2.90
2017-08-04T20:32:38.789Z,2.30
2017-08-04T20:35:08.034Z,2.03
2017-08-04T20:37:36.999Z,2.23
2017-08-04T20:40:06.046Z,2.57
2017-08-04T20:42:35.880Z,2.70
2017-08-04T20:45:04.833Z,2.53
2017-08-04T20:47:33.837Z,2.50
2017-08-04T20:50:02.957Z,3.00
2017-08-04T20:52:32.004Z,3.00
2017-08-04T20:55:02.085Z,2.93
2017-08-04T20:57:31.156Z,2.80
2017-08-04T21:00:00.158Z,2.50
2017-08-04T21:02:29.193Z,2.47
2017-08-04T21:04:58.184Z,1.70
2017-08-04T21:07:27.279Z,2.20
2017-08-04T21:11:19.770Z,1.80
2017-08-04T21:13:49.259Z,2.00
2017-08-04T21:16:20.388Z,2.03
2017-08-04T21:20:08.684Z,1.98
2017-08-04T21:22:37.709Z,1.90
2017-08-04T21:25:06.746Z,2.12
2017-08-04T21:27:36.357Z,2.93
2017-08-04T21:30:05.388Z,2.20
2017-08-04T21:32:34.372Z,2.20
2017-08-04T21:35:03.313Z,2.33
2017-08-04T21:37:32.327Z,2.80
2017-08-04T21:40:01.268Z,2.10
2017-08-04T21:42:30.230Z,1.70
2017-08-04T21:44:59.239Z,2.00
2017-08-04T21:47:28.250Z,2.20
2017-08-04T21:49:57.217Z,2.43
2017-08-04T21:52:26.185Z,2.30
2017-08-04T21:54:55.095Z,2.27
2017-08-04T21:57:24.094Z,2.50
2017-08-04T21:59:53.151Z,2.03
2017-08-04T22:02:22.131Z,2.23
2017-08-04T22:04:51.146Z,2.77
2017-08-04T22:07:20.091Z,2.27
2017-08-04T22:09:49.118Z,2.47
2017-08-04T22:12:18.113Z,2.40
2017-08-04T22:14:53.521Z,2.47
2017-08-04T22:17:22.504Z,2.35
2017-08-04T22:19:51.572Z,2.33
2017-08-04T22:22:20.610Z,2.20
2017-08-04T22:24:49.526Z,2.50
2017-08-04T22:27:18.442Z,2.85
2017-08-04T22:29:47.459Z,2.00
2017-08-04T22:32:16.378Z,2.50
2017-08-04T22:34:45.322Z,2.13
2017-08-04T22:37:14.287Z,2.50
2017-08-04T22:39:43.236Z,2.50
2017-08-04T22:42:12.230Z,2.30
2017-08-04T22:44:41.244Z,2.30
2017-08-04T22:47:10.298Z,2.27
2017-08-04T22:49:39.312Z,2.43
2017-08-04T22:52:08.237Z,2.00
2017-08-04T22:54:37.274Z,2.40
2017-08-04T22:57:06.497Z,2.30
2017-08-04T22:59:36.352Z,2.67
2017-08-04T23:02:05.272Z,2.63
2017-08-04T23:04:34.221Z,2.45
2017-08-04T23:07:03.179Z,2.33
2017-08-04T23:09:32.141Z,2.30
2017-08-04T23:12:01.052Z,2.30
2017-08-04T23:14:30.055Z,2.50
2017-08-04T23:16:59.032Z,1.95
2017-08-04T23:19:28.012Z,2.60
2017-08-04T23:21:56.931Z,2.97
2017-08-04T23:24:25.891Z,2.60
2017-08-04T23:26:54.787Z,2.73
2017-08-04T23:29:23.708Z,3.00
2017-08-04T23:31:52.627Z,2.60
2017-08-04T23:34:21.547Z,2.60
2017-08-04T23:36:50.533Z,2.40
2017-08-04T23:39:19.426Z,2.92
2017-08-04T23:41:48.386Z,2.97
2017-08-04T23:44:17.285Z,2.83
2017-08-04T23:46:46.201Z,3.10
2017-08-04T23:49:15.104Z,2.58
2017-08-04T23:51:58.547Z,3.00
2017-08-04T23:54:27.460Z,2.72
2017-08-04T23:56:56.492Z,2.80
2017-08-04T23:59:25.399Z,2.90
